Time;durP1;ratioP1;P1;durP2;ratioP2;P2;SDS_P1;SDS_P2;PMS_P1;PMS_P2;Temp;Humidity;BMP_temperature;BMP_pressure;BME280_temperature;BME280_humidity;BME280_pressure;Samples;Min_cycle;Max_cycle;Signal;HPM_P1;HPM_P2
2022/08/20 00:00:16;;;;;;;3.25;2.17;;;25.30;58.10;;;;;;4997954;28;20030;-82
2022/08/20 00:02:54;;;;;;;3.33;2.10;;;25.30;58.10;;;;;;4997984;28;20060;-82
2022/08/20 00:05:30;;;;;;;2.22;1.63;;;25.30;58.20;;;;;;4997509;28;20038;-82
2022/08/20 00:07:57;;;;;;;2.70;1.85;;;25.30;58.20;;;;;;4981075;28;20029;-83
2022/08/20 00:10:25;;;;;;;2.72;2.05;;;25.30;58.10;;;;;;4981036;28;20026;-82
2022/08/20 00:12:51;;;;;;;2.28;1.65;;;25.30;58.20;;;;;;4997203;28;20029;-83
2022/08/20 00:15:20;;;;;;;2.70;2.05;;;25.30;58.20;;;;;;4997030;28;20018;-82
2022/08/20 00:17:50;;;;;;;2.55;1.77;;;25.30;58.30;;;;;;4996728;28;20036;-82
2022/08/20 00:20:18;;;;;;;3.50;2.30;;;25.30;58.30;;;;;;4997808;28;20487;-82
2022/08/20 00:22:44;;;;;;;2.67;1.90;;;25.20;58.30;;;;;;4996881;28;20033;-83
2022/08/20 00:25:11;;;;;;;2.97;2.08;;;25.20;58.30;;;;;;5014515;28;20470;-82
2022/08/20 00:27:37;;;;;;;2.38;1.90;;;25.20;58.30;;;;;;4996856;28;20355;-82
2022/08/20 00:30:06;;;;;;;3.03;2.00;;;25.20;58.30;;;;;;5014391;28;20121;-83
2022/08/20 00:32:48;;;;;;;3.33;2.17;;;25.20;58.40;;;;;;4996625;28;20466;-83
2022/08/20 00:35:15;;;;;;;2.72;1.98;;;25.20;58.50;;;;;;4996482;28;20478;-84
2022/08/20 00:37:42;;;;;;;2.20;1.75;;;25.20;58.40;;;;;;4996786;28;20112;-81
2022/08/20 00:40:10;;;;;;;3.45;2.33;;;25.20;58.50;;;;;;4996877;28;20018;-82
2022/08/20 00:42:46;;;;;;;2.75;2.28;;;25.20;58.70;;;;;;5014322;28;20081;-83
2022/08/20 00:45:14;;;;;;;2.58;2.08;;;25.10;59.00;;;;;;5000785;28;20034;-83
2022/08/20 00:47:43;;;;;;;3.75;2.33;;;25.10;58.80;;;;;;4993059;28;20030;-82
2022/08/20 00:50:11;;;;;;;3.90;2.38;;;25.10;59.00;;;;;;5004499;28;20495;-81
2022/08/20 00:52:40;;;;;;;3.10;2.22;;;25.10;59.00;;;;;;5017538;28;20072;-82
2022/08/20 00:55:06;;;;;;;3.88;2.33;;;25.10;59.10;;;;;;4996511;28;20466;-84
2022/08/20 00:57:38;;;;;;;3.38;2.30;;;25.10;59.10;;;;;;4996274;28;20038;-83
2022/08/20 01:00:11;;;;;;;3.28;2.20;;;25.10;59.20;;;;;;4980310;28;20025;-82
2022/08/20 01:02:38;;;;;;;3.33;2.30;;;25.10;59.10;;;;;;4996228;28;20458;-83
2022/08/20 01:05:08;;;;;;;2.75;2.13;;;25.10;59.00;;;;;;4996378;28;20105;-83
2022/08/20 01:07:35;;;;;;;2.88;2.38;;;25.00;59.00;;;;;;4981249;28;20056;-84
2022/08/20 01:10:10;;;;;;;3.80;2.50;;;25.10;59.20;;;;;;5013758;28;20029;-83
2022/08/20 01:12:39;;;;;;;3.00;2.28;;;25.00;59.20;;;;;;5014004;28;20458;-82
2022/08/20 01:15:10;;;;;;;2.92;2.30;;;25.00;59.30;;;;;;4996567;28;20072;-83
2022/08/20 01:17:42;;;;;;;3.30;2.03;;;25.00;59.30;;;;;;4996384;28;20113;-82
2022/08/20 01:20:32;;;;;;;2.92;2.22;;;25.00;59.20;;;;;;5014301;28;20455;-82
2022/08/20 01:23:44;;;;;;;3.47;2.63;;;24.90;59.20;;;;;;5014149;28;20057;-82
2022/08/20 01:26:25;;;;;;;2.83;2.05;;;24.90;59.20;;;;;;4937169;29;20039;-84
2022/08/20 01:29:02;;;;;;;2.95;1.92;;;24.90;59.20;;;;;;4994633;28;20048;-82
2022/08/20 01:31:32;;;;;;;4.13;2.53;;;24.90;59.20;;;;;;4996415;28;20040;-81
2022/08/20 01:34:00;;;;;;;3.53;1.98;;;24.90;59.20;;;;;;5013649;28;20482;-82
2022/08/20 01:36:48;;;;;;;3.38;2.22;;;24.90;59.20;;;;;;4996104;28;20110;-82
2022/08/20 01:39:20;;;;;;;2.90;2.30;;;24.90;59.40;;;;;;4996346;28;20033;-83
2022/08/20 01:42:18;;;;;;;3.88;2.65;;;24.80;59.40;;;;;;4980014;28;20034;-82
2022/08/20 01:44:45;;;;;;;3.80;2.65;;;24.80;59.80;;;;;;5012972;28;20390;-82
2022/08/20 01:47:30;;;;;;;4.03;2.75;;;24.80;59.70;;;;;;4980518;28;20030;-82
2022/08/20 01:50:04;;;;;;;3.50;2.42;;;24.80;60.00;;;;;;5003948;28;20125;-81
2022/08/20 01:52:40;;;;;;;3.22;2.38;;;24.80;59.90;;;;;;4976636;28;20126;-82
2022/08/20 01:55:07;;;;;;;3.83;2.55;;;24.80;60.10;;;;;;4977063;28;20442;-82
2022/08/20 01:57:34;;;;;;;3.53;2.65;;;24.80;60.20;;;;;;4960148;28;20058;-81
2022/08/20 02:00:01;;;;;;;4.43;2.88;;;24.80;60.20;;;;;;4976691;28;20039;-81
2022/08/20 02:02:31;;;;;;;4.07;2.90;;;24.80;60.30;;;;;;4976716;28;20042;-83
2022/08/20 02:04:59;;;;;;;3.65;2.72;;;24.80;60.20;;;;;;4944568;28;20030;-81
2022/08/20 02:07:25;;;;;;;4.20;3.20;;;24.80;60.30;;;;;;4976172;28;20106;-82
2022/08/20 02:09:51;;;;;;;4.82;2.78;;;24.70;60.20;;;;;;4960447;28;20038;-82
2022/08/20 02:12:17;;;;;;;3.80;2.53;;;24.80;60.20;;;;;;4961856;28;20034;-82
2022/08/20 02:14:50;;;;;;;3.85;2.83;;;24.70;60.10;;;;;;4979821;28;20030;-82
2022/08/20 02:17:17;;;;;;;3.60;2.63;;;24.70;60.10;;;;;;4997798;28;20034;-83
2022/08/20 02:19:49;;;;;;;3.40;2.17;;;24.70;60.00;;;;;;4979971;28;20041;-80
2022/08/20 02:22:20;;;;;;;3.90;2.72;;;24.70;60.00;;;;;;4997612;28;20467;-81
2022/08/20 02:24:46;;;;;;;3.63;2.50;;;24.70;60.00;;;;;;4998028;28;20105;-81
2022/08/20 02:27:12;;;;;;;3.17;2.40;;;24.70;59.90;;;;;;4979848;28;20117;-81
2022/08/20 02:29:38;;;;;;;3.08;2.08;;;24.70;60.00;;;;;;4979693;28;20026;-81
2022/08/20 02:32:07;;;;;;;3.80;2.65;;;24.60;60.50;;;;;;4963831;28;20041;-82
2022/08/20 02:34:34;;;;;;;2.92;2.38;;;24.60;59.90;;;;;;4997286;28;20387;-82
2022/08/20 02:37:01;;;;;;;3.47;2.55;;;24.60;59.90;;;;;;4963395;28;20038;-81
2022/08/20 02:39:27;;;;;;;3.22;2.08;;;24.60;59.90;;;;;;4979168;28;20472;-80
2022/08/20 02:41:53;;;;;;;2.67;2.20;;;24.60;59.90;;;;;;4979908;28;20033;-80
2022/08/20 02:44:19;;;;;;;2.70;2.08;;;24.60;59.90;;;;;;4963306;28;20038;-86
2022/08/20 02:46:49;;;;;;;2.92;2.15;;;24.60;59.90;;;;;;4963026;28;20064;-83
2022/08/20 02:49:17;;;;;;;2.40;2.00;;;24.50;59.90;;;;;;4983082;28;20052;-82
2022/08/20 02:51:43;;;;;;;3.28;2.17;;;24.50;59.90;;;;;;4998973;28;20108;-81
2022/08/20 02:54:10;;;;;;;2.65;2.17;;;24.60;60.00;;;;;;4982405;28;20566;-83
2022/08/20 02:56:36;;;;;;;2.40;2.10;;;24.50;60.60;;;;;;4998692;28;20030;-82
2022/08/20 02:59:01;;;;;;;3.35;2.17;;;24.50;60.00;;;;;;4982857;28;20030;-82
2022/08/20 03:01:27;;;;;;;2.78;2.30;;;24.50;60.00;;;;;;5004573;28;20018;-82
2022/08/20 03:03:55;;;;;;;2.92;1.92;;;24.50;60.00;;;;;;5026560;28;20057;-81
2022/08/20 03:06:22;;;;;;;2.83;2.00;;;24.50;60.10;;;;;;4993454;28;20030;-82
2022/08/20 03:08:48;;;;;;;2.70;2.10;;;24.50;60.10;;;;;;5032392;28;20006;-81
2022/08/20 03:11:14;;;;;;;2.58;1.90;;;24.50;60.10;;;;;;4994543;28;20034;-81
2022/08/20 03:13:40;;;;;;;3.60;2.10;;;24.50;60.10;;;;;;4985753;28;20097;-82
2022/08/20 03:16:06;;;;;;;2.63;1.98;;;24.40;60.10;;;;;;4983548;28;20030;-81
2022/08/20 03:18:36;;;;;;;2.72;2.05;;;24.40;60.10;;;;;;4998934;28;20061;-82
2022/08/20 03:21:03;;;;;;;2.47;2.03;;;24.40;60.20;;;;;;4982705;28;20113;-82
2022/08/20 03:23:29;;;;;;;2.65;2.15;;;24.40;60.20;;;;;;4982722;28;20034;-81
2022/08/20 03:25:55;;;;;;;2.97;2.00;;;24.40;60.20;;;;;;4998667;28;20041;-81
2022/08/20 03:28:21;;;;;;;3.63;2.35;;;24.40;60.20;;;;;;5016376;28;20347;-82
2022/08/20 03:30:47;;;;;;;2.60;2.00;;;24.40;60.30;;;;;;5015263;28;20030;-80
2022/08/20 03:33:12;;;;;;;2.58;1.90;;;24.40;60.30;;;;;;4981843;28;20041;-83
2022/08/20 03:35:38;;;;;;;3.45;2.10;;;24.30;60.20;;;;;;4997492;28;20034;-85
2022/08/20 03:38:12;;;;;;;2.10;1.70;;;24.40;60.30;;;;;;4981551;28;20065;-84
2022/08/20 03:40:38;;;;;;;2.35;1.85;;;24.30;60.40;;;;;;4981562;28;20084;-81
2022/08/20 03:43:07;;;;;;;2.55;1.85;;;24.30;60.40;;;;;;4998219;28;20026;-81
2022/08/20 03:45:35;;;;;;;2.78;1.98;;;24.30;60.40;;;;;;4997628;28;20064;-82
2022/08/20 03:48:01;;;;;;;2.35;1.80;;;24.30;60.40;;;;;;4981522;28;20022;-84
2022/08/20 03:50:30;;;;;;;2.33;1.73;;;24.30;60.50;;;;;;4977830;28;20495;-81
2022/08/20 03:52:57;;;;;;;2.30;1.80;;;24.30;60.50;;;;;;4978091;28;20033;-81
2022/08/20 03:55:24;;;;;;;2.42;1.80;;;24.30;60.50;;;;;;4978152;28;20026;-85
2022/08/20 03:57:54;;;;;;;2.47;1.88;;;24.30;60.60;;;;;;4978151;28;20038;-82
2022/08/20 04:00:28;;;;;;;2.70;1.75;;;24.30;60.60;;;;;;4978382;28;20043;-82
2022/08/20 04:02:56;;;;;;;2.10;1.65;;;24.20;60.60;;;;;;4994050;28;20057;-80
2022/08/20 04:05:23;;;;;;;2.28;1.65;;;24.20;60.50;;;;;;4993983;28;20026;-82
2022/08/20 04:07:49;;;;;;;2.25;1.77;;;24.20;60.70;;;;;;4977972;28;20034;-80
2022/08/20 04:10:15;;;;;;;3.05;2.00;;;24.20;60.70;;;;;;4977943;28;20037;-81
2022/08/20 04:12:41;;;;;;;2.15;1.75;;;24.20;60.70;;;;;;4993875;28;20070;-81
2022/08/20 04:15:11;;;;;;;2.58;1.90;;;24.20;60.70;;;;;;4978544;28;20031;-81
2022/08/20 04:17:40;;;;;;;2.75;1.88;;;24.20;60.80;;;;;;4977921;28;20058;-82
2022/08/20 04:20:09;;;;;;;2.00;1.70;;;24.20;60.80;;;;;;4977704;28;20088;-80
2022/08/20 04:22:35;;;;;;;2.58;1.77;;;24.10;60.70;;;;;;4978021;28;20056;-81
2022/08/20 04:25:03;;;;;;;1.58;1.42;;;24.20;60.80;;;;;;4977911;28;20399;-81
2022/08/20 04:27:31;;;;;;;2.40;2.10;;;24.20;60.80;;;;;;4961474;28;20092;-81
2022/08/20 04:29:59;;;;;;;3.05;2.00;;;24.10;60.80;;;;;;4961611;28;20034;-82
2022/08/20 04:32:25;;;;;;;1.80;1.60;;;24.10;60.90;;;;;;4977157;28;20464;-82
2022/08/20 04:34:51;;;;;;;2.03;1.73;;;24.10;60.90;;;;;;4977257;28;20041;-81
2022/08/20 04:37:21;;;;;;;2.67;1.90;;;24.10;60.90;;;;;;4994348;28;20455;-81
2022/08/20 04:40:52;;;;;;;2.67;1.90;;;24.10;60.90;;;;;;4977179;28;20035;-83
2022/08/20 04:42:36;;;;;;;3.03;1.88;;;24.10;60.90;;;;;;4994670;28;20036;-85
2022/08/20 04:45:05;;;;;;;2.53;1.83;;;24.10;61.00;;;;;;4977050;28;20026;-84
2022/08/20 04:47:32;;;;;;;2.50;1.77;;;24.10;61.00;;;;;;4994541;28;20088;-84
2022/08/20 04:50:01;;;;;;;2.55;1.70;;;24.00;60.90;;;;;;4986761;28;20176;-81
2022/08/20 04:52:28;;;;;;;2.53;1.75;;;24.00;61.00;;;;;;4980372;28;20034;-83
2022/08/20 04:54:56;;;;;;;2.03;1.65;;;24.00;61.00;;;;;;4980288;28;20033;-82
2022/08/20 04:57:24;;;;;;;2.33;1.73;;;24.00;61.10;;;;;;4980632;28;20057;-84
2022/08/20 04:59:51;;;;;;;1.65;1.55;;;24.00;61.10;;;;;;4980301;28;20040;-83
2022/08/20 05:02:18;;;;;;;1.88;1.67;;;24.00;61.10;;;;;;4980502;28;20048;-81
2022/08/20 05:04:44;;;;;;;3.17;1.90;;;24.00;61.10;;;;;;4996618;28;20450;-83
2022/08/20 05:07:11;;;;;;;3.22;1.77;;;24.00;61.10;;;;;;4996671;28;20033;-83
2022/08/20 05:09:37;;;;;;;2.10;1.75;;;24.00;61.20;;;;;;4996444;28;20057;-82
2022/08/20 05:12:03;;;;;;;2.25;1.73;;;24.00;61.20;;;;;;4996352;28;20061;-82
2022/08/20 05:14:30;;;;;;;2.17;1.55;;;24.00;61.20;;;;;;4979877;28;20037;-82
2022/08/20 05:16:58;;;;;;;2.15;1.83;;;23.90;61.20;;;;;;5013313;28;20151;-82
2022/08/20 05:19:24;;;;;;;2.20;1.60;;;24.00;61.30;;;;;;4996274;28;20022;-83
2022/08/20 05:21:52;;;;;;;2.40;1.98;;;23.90;61.90;;;;;;4996515;28;20524;-84
2022/08/20 05:24:20;;;;;;;2.75;1.95;;;23.90;61.30;;;;;;4980129;28;20018;-82
2022/08/20 05:26:46;;;;;;;2.15;1.80;;;23.90;61.30;;;;;;4996835;28;20100;-82
2022/08/20 05:29:12;;;;;;;2.92;2.00;;;23.90;61.40;;;;;;4980163;28;20467;-83
2022/08/20 05:31:38;;;;;;;2.05;1.58;;;23.90;61.40;;;;;;4980077;28;20041;-82
2022/08/20 05:34:08;;;;;;;1.75;1.55;;;23.90;61.40;;;;;;4996069;28;20030;-81
2022/08/20 05:36:34;;;;;;;1.80;1.58;;;23.90;61.40;;;;;;4996238;28;20030;-82
2022/08/20 05:39:00;;;;;;;1.75;1.50;;;23.90;61.50;;;;;;4980028;28;20026;-81
2022/08/20 05:41:30;;;;;;;1.95;1.60;;;23.80;61.40;;;;;;4996481;28;20427;-82
2022/08/20 05:44:00;;;;;;;1.98;1.60;;;23.80;61.50;;;;;;4996394;28;20034;-81
2022/08/20 05:46:26;;;;;;;1.65;1.45;;;23.80;61.50;;;;;;5014003;28;20033;-80
2022/08/20 05:48:52;;;;;;;1.50;1.40;;;23.80;61.50;;;;;;5000390;28;20034;-81
2022/08/20 05:51:17;;;;;;;2.78;1.70;;;23.80;61.60;;;;;;5000465;28;20364;-85
2022/08/20 05:53:43;;;;;;;2.65;1.70;;;23.80;61.60;;;;;;5000068;28;20034;-81
2022/08/20 05:56:12;;;;;;;2.45;1.52;;;23.80;61.60;;;;;;4968272;28;20045;-81
2022/08/20 05:58:38;;;;;;;1.83;1.40;;;23.80;61.70;;;;;;5000046;28;20060;-83
2022/08/20 06:01:04;;;;;;;2.58;1.38;;;23.80;62.40;;;;;;4999796;28;20034;-81
2022/08/20 06:06:31;;;;;;;1.50;1.40;;;23.70;61.70;;;;;;4921554;29;20444;-81
2022/08/20 06:08:56;;;;;;;1.35;1.20;;;23.80;61.70;;;;;;4983546;28;20038;-81
2022/08/20 06:11:22;;;;;;;1.85;1.45;;;23.70;61.80;;;;;;4967198;28;20034;-81
2022/08/20 06:13:48;;;;;;;1.40;1.30;;;23.70;61.80;;;;;;5017717;28;20038;-80
2022/08/20 06:16:14;;;;;;;1.60;1.27;;;23.70;61.80;;;;;;5016709;28;20466;-81
2022/08/20 06:18:40;;;;;;;1.65;1.55;;;23.70;61.90;;;;;;4999664;28;20034;-84
2022/08/20 06:21:06;;;;;;;1.85;1.30;;;23.70;61.90;;;;;;4999928;28;20455;-81
2022/08/20 06:23:32;;;;;;;2.33;1.60;;;23.70;61.90;;;;;;4983401;28;20476;-80
2022/08/20 06:25:57;;;;;;;1.38;1.25;;;23.60;61.90;;;;;;4982984;28;20034;-80
2022/08/20 06:28:23;;;;;;;1.98;1.45;;;23.60;61.90;;;;;;4982934;28;20478;-80
2022/08/20 06:30:49;;;;;;;1.70;1.35;;;23.60;61.90;;;;;;4998705;28;20034;-80
2022/08/20 06:33:14;;;;;;;1.38;1.27;;;23.60;62.60;;;;;;4999116;28;20037;-81
2022/08/20 06:35:41;;;;;;;1.55;1.30;;;23.60;62.00;;;;;;4982414;28;20045;-81
2022/08/20 06:38:11;;;;;;;1.40;1.30;;;23.60;62.00;;;;;;4999304;28;20057;-82
2022/08/20 06:40:37;;;;;;;1.92;1.40;;;23.60;62.00;;;;;;4998915;28;20030;-81
2022/08/20 06:43:03;;;;;;;1.40;1.30;;;23.60;62.10;;;;;;4998622;28;20022;-84
2022/08/20 06:45:31;;;;;;;1.63;1.33;;;23.60;62.10;;;;;;4982771;28;20040;-81
2022/08/20 06:48:00;;;;;;;2.40;1.50;;;23.60;62.10;;;;;;5016689;28;20076;-81
2022/08/20 06:50:32;;;;;;;1.73;1.40;;;23.60;62.10;;;;;;4979094;28;20489;-80
2022/08/20 06:52:59;;;;;;;1.48;1.25;;;23.60;62.20;;;;;;4996307;28;20102;-79
2022/08/20 06:55:25;;;;;;;2.42;1.55;;;23.60;62.20;;;;;;4996471;28;20030;-79
2022/08/20 06:58:00;;;;;;;1.98;1.42;;;23.60;62.20;;;;;;4994629;28;20105;-79
2022/08/20 07:00:27;;;;;;;2.05;1.20;;;23.60;62.30;;;;;;4996213;28;20035;-79
2022/08/20 07:02:53;;;;;;;1.63;1.40;;;23.60;62.30;;;;;;4994811;28;20081;-80
2022/08/20 07:05:19;;;;;;;1.77;1.40;;;23.60;62.30;;;;;;4995677;28;20026;-79
2022/08/20 07:07:49;;;;;;;2.17;1.40;;;23.60;62.30;;;;;;4995040;28;20069;-80
2022/08/20 07:10:17;;;;;;;2.40;1.48;;;23.60;62.40;;;;;;4996098;28;20030;-79
2022/08/20 07:12:43;;;;;;;2.90;1.60;;;23.60;62.40;;;;;;4979541;28;20026;-80
2022/08/20 07:15:11;;;;;;;1.85;1.38;;;23.60;62.40;;;;;;4995792;28;20034;-80
2022/08/20 07:17:37;;;;;;;2.45;1.50;;;23.60;62.40;;;;;;4961880;28;20038;-80
2022/08/20 07:20:14;;;;;;;1.45;1.35;;;23.60;62.40;;;;;;4996236;28;20029;-80
2022/08/20 07:22:41;;;;;;;1.48;1.38;;;23.60;63.10;;;;;;4996054;28;20050;-79
2022/08/20 07:25:10;;;;;;;1.90;1.40;;;23.60;62.30;;;;;;4962224;28;20041;-80
2022/08/20 07:27:36;;;;;;;2.10;1.40;;;23.60;62.40;;;;;;4994503;28;20049;-78
2022/08/20 07:32:50;;;;;;;2.45;1.30;;;23.60;62.40;;;;;;4995912;28;20030;-79
2022/08/20 07:35:17;;;;;;;2.17;1.48;;;23.60;62.30;;;;;;4978057;28;20042;-79
2022/08/20 07:37:47;;;;;;;3.10;1.63;;;23.60;62.30;;;;;;4978217;28;20039;-79
2022/08/20 07:40:22;;;;;;;2.25;1.38;;;23.60;62.30;;;;;;4995986;28;20027;-80
2022/08/20 07:42:49;;;;;;;2.45;1.33;;;23.50;62.20;;;;;;4994184;28;20034;-80
2022/08/20 07:45:17;;;;;;;1.38;1.27;;;23.60;62.20;;;;;;4994978;28;20030;-80
2022/08/20 07:47:44;;;;;;;1.67;1.33;;;23.60;62.10;;;;;;4994975;28;20030;-81
2022/08/20 07:50:13;;;;;;;1.33;1.20;;;23.60;62.10;;;;;;4980901;28;20487;-79
2022/08/20 07:52:39;;;;;;;1.65;1.50;;;23.50;62.00;;;;;;4997855;28;20041;-79
2022/08/20 07:55:08;;;;;;;2.53;1.20;;;23.60;62.00;;;;;;5015132;28;20496;-80
2022/08/20 07:57:34;;;;;;;1.80;1.15;;;23.50;61.90;;;;;;5014620;28;20105;-83
2022/08/20 08:00:00;;;;;;;1.80;1.42;;;23.50;61.90;;;;;;5014832;28;20026;-84
2022/08/20 08:02:27;;;;;;;1.55;1.38;;;23.50;61.90;;;;;;4996987;28;20080;-79
2022/08/20 08:04:54;;;;;;;2.00;1.65;;;23.50;61.90;;;;;;4997023;28;20030;-81
2022/08/20 08:07:20;;;;;;;2.00;1.30;;;23.50;61.90;;;;;;4980785;28;20494;-79
2022/08/20 08:09:48;;;;;;;1.95;1.23;;;23.60;61.90;;;;;;4980045;28;20037;-80
2022/08/20 08:12:14;;;;;;;1.65;1.55;;;23.50;61.80;;;;;;5014406;28;20034;-81
2022/08/20 08:14:43;;;;;;;2.40;1.38;;;23.50;62.40;;;;;;4996665;28;20026;-81
2022/08/20 08:17:11;;;;;;;3.10;1.55;;;23.50;61.80;;;;;;4980367;28;20044;-81
2022/08/20 08:19:42;;;;;;;2.78;1.42;;;23.50;61.80;;;;;;4997058;28;20115;-82
2022/08/20 08:22:11;;;;;;;2.72;1.50;;;23.50;61.80;;;;;;4997575;28;20484;-80
2022/08/20 08:24:38;;;;;;;1.42;1.33;;;23.60;61.80;;;;;;4996745;28;20033;-80
2022/08/20 08:27:05;;;;;;;1.60;1.30;;;23.60;61.70;;;;;;5014409;28;20078;-83
2022/08/20 08:29:31;;;;;;;2.13;1.33;;;23.60;61.70;;;;;;5013930;28;20113;-81
2022/08/20 08:31:59;;;;;;;1.88;1.30;;;23.60;61.60;;;;;;4997439;28;20509;-80
2022/08/20 08:34:25;;;;;;;2.55;1.40;;;23.60;61.60;;;;;;4996617;28;20063;-79
2022/08/20 08:36:51;;;;;;;1.95;1.20;;;23.60;61.60;;;;;;4980222;28;20529;-81
2022/08/20 08:39:18;;;;;;;1.85;1.40;;;23.60;61.50;;;;;;4979827;28;20132;-81
2022/08/20 08:41:49;;;;;;;1.55;1.15;;;23.70;61.50;;;;;;4996305;28;20080;-81
2022/08/20 08:44:22;;;;;;;1.67;1.40;;;23.80;61.60;;;;;;4996562;28;20471;-80
2022/08/20 08:46:55;;;;;;;1.95;1.25;;;23.80;61.40;;;;;;4996653;28;20072;-81
2022/08/20 08:49:32;;;;;;;1.67;1.30;;;23.80;61.30;;;;;;4996372;28;20518;-81
2022/08/20 08:52:12;;;;;;;1.55;1.45;;;23.80;61.30;;;;;;4997030;28;20030;-81
2022/08/20 08:54:43;;;;;;;1.42;1.20;;;23.90;61.20;;;;;;5014092;28;20425;-82
2022/08/20 08:57:09;;;;;;;2.70;1.30;;;23.90;61.20;;;;;;5013938;28;20042;-82
2022/08/20 08:59:35;;;;;;;1.55;1.30;;;24.00;61.10;;;;;;4981027;28;20038;-82
2022/08/20 09:02:01;;;;;;;1.20;1.10;;;24.00;61.00;;;;;;4996068;28;20030;-82
2022/08/20 09:04:32;;;;;;;1.77;1.20;;;24.00;61.00;;;;;;4980196;28;20034;-81
2022/08/20 09:07:00;;;;;;;1.48;1.30;;;24.20;61.00;;;;;;4996025;28;20397;-81
2022/08/20 09:09:36;;;;;;;2.03;1.33;;;24.20;60.90;;;;;;4995984;28;20057;-82
2022/08/20 09:12:09;;;;;;;1.63;1.20;;;24.30;60.90;;;;;;5013376;28;20030;-80
2022/08/20 09:14:35;;;;;;;1.52;1.02;;;24.30;60.70;;;;;;4996635;28;20088;-82
2022/08/20 09:17:01;;;;;;;1.98;1.33;;;24.40;60.70;;;;;;4996031;28;20088;-82
2022/08/20 09:19:27;;;;;;;1.30;1.08;;;24.50;60.60;;;;;;4979822;28;20134;-80
2022/08/20 09:21:53;;;;;;;2.42;1.13;;;24.50;60.50;;;;;;4979666;28;20026;-81
2022/08/20 09:24:18;;;;;;;2.38;1.17;;;24.60;60.50;;;;;;4996188;28;20034;-83
2022/08/20 09:26:44;;;;;;;3.28;1.27;;;24.60;60.20;;;;;;4963947;28;20084;-83
2022/08/20 09:29:10;;;;;;;3.15;1.55;;;24.70;59.80;;;;;;4980730;28;20034;-83
2022/08/20 09:31:37;;;;;;;2.67;1.45;;;24.80;59.50;;;;;;4996029;28;20025;-84
2022/08/20 09:34:03;;;;;;;2.30;1.40;;;24.80;59.00;;;;;;4979381;28;20029;-84
2022/08/20 09:36:28;;;;;;;3.40;1.55;;;24.90;58.90;;;;;;4995590;28;20088;-83
2022/08/20 09:38:54;;;;;;;2.88;1.40;;;25.00;58.50;;;;;;4963447;28;20434;-82
2022/08/20 09:41:20;;;;;;;3.85;1.58;;;25.10;58.20;;;;;;4964050;28;20033;-84
2022/08/20 09:43:46;;;;;;;2.83;1.30;;;25.10;58.10;;;;;;4995432;28;20065;-82
2022/08/20 09:46:12;;;;;;;2.63;1.30;;;25.10;58.10;;;;;;4979568;28;20041;-83
2022/08/20 09:48:38;;;;;;;3.13;1.60;;;25.20;58.20;;;;;;4995666;28;20030;-84
2022/08/20 09:51:04;;;;;;;3.75;1.50;;;25.30;58.00;;;;;;4977806;28;20468;-85
2022/08/20 09:53:30;;;;;;;3.25;1.58;;;25.30;57.60;;;;;;4976061;28;20034;-80
2022/08/20 09:55:59;;;;;;;3.28;1.60;;;25.40;57.30;;;;;;4976352;28;20035;-79
2022/08/20 09:58:44;;;;;;;3.55;1.70;;;25.40;57.60;;;;;;4960188;28;20031;-81
2022/08/20 10:01:13;;;;;;;3.20;1.50;;;25.50;56.90;;;;;;4976177;28;20034;-82
2022/08/20 10:03:44;;;;;;;2.00;1.20;;;25.50;56.80;;;;;;4993820;28;20026;-85
2022/08/20 10:06:10;;;;;;;2.85;1.40;;;25.60;57.50;;;;;;4960301;28;20046;-83
2022/08/20 10:08:37;;;;;;;2.15;1.33;;;25.60;56.80;;;;;;4975760;28;20034;-81
2022/08/20 10:11:03;;;;;;;2.72;1.40;;;25.70;56.80;;;;;;4960148;28;20031;-82
2022/08/20 10:13:29;;;;;;;2.58;1.38;;;25.70;56.80;;;;;;4977038;28;20065;-82
2022/08/20 10:15:55;;;;;;;3.25;1.40;;;25.80;56.90;;;;;;4960734;28;20035;-85
2022/08/20 10:18:21;;;;;;;2.22;1.30;;;25.80;56.90;;;;;;4959997;28;20467;-80
2022/08/20 10:20:47;;;;;;;2.47;1.42;;;25.90;57.10;;;;;;4975763;28;20022;-79
2022/08/20 10:23:12;;;;;;;2.13;1.35;;;26.00;57.10;;;;;;4975794;28;20031;-82
2022/08/20 10:25:38;;;;;;;2.13;1.33;;;26.00;57.10;;;;;;4959867;28;20073;-85
2022/08/20 10:28:05;;;;;;;2.30;1.25;;;26.10;57.20;;;;;;4960302;28;20382;-84
2022/08/20 10:30:31;;;;;;;2.10;1.10;;;26.10;57.10;;;;;;4960038;28;20050;-82
2022/08/20 10:32:57;;;;;;;1.55;1.20;;;26.20;57.10;;;;;;4976782;28;20037;-82
2022/08/20 10:35:23;;;;;;;2.78;1.60;;;26.30;57.20;;;;;;4996957;28;20394;-83
2022/08/20 10:37:49;;;;;;;3.00;1.42;;;26.30;57.50;;;;;;4997070;28;20038;-83
2022/08/20 10:40:15;;;;;;;3.38;1.20;;;26.40;57.10;;;;;;4979542;28;20374;-82
2022/08/20 10:42:42;;;;;;;2.50;1.20;;;26.50;57.10;;;;;;4964093;28;20057;-82
2022/08/20 10:45:10;;;;;;;2.25;1.20;;;26.50;57.00;;;;;;4979272;28;20078;-83
2022/08/20 10:47:36;;;;;;;1.92;1.17;;;26.60;57.00;;;;;;4962931;28;20040;-82
2022/08/20 10:50:05;;;;;;;2.67;1.20;;;26.60;56.90;;;;;;4973135;28;20354;-80
2022/08/20 10:52:31;;;;;;;1.80;1.15;;;26.70;56.80;;;;;;5015962;28;20033;-79
2022/08/20 10:54:56;;;;;;;2.50;1.10;;;26.80;56.90;;;;;;5016319;28;20034;-80
2022/08/20 10:57:27;;;;;;;2.42;1.10;;;26.90;56.90;;;;;;4982250;28;20041;-80
2022/08/20 10:59:55;;;;;;;2.05;1.23;;;26.90;56.90;;;;;;4982350;28;20045;-80
2022/08/20 11:02:22;;;;;;;1.45;1.02;;;26.90;56.80;;;;;;4998387;28;20018;-83
2022/08/20 11:04:48;;;;;;;1.88;0.90;;;27.00;56.80;;;;;;4982418;28;20037;-82
2022/08/20 11:07:18;;;;;;;2.67;1.40;;;27.10;56.80;;;;;;4998371;28;20030;-80
2022/08/20 11:09:45;;;;;;;2.05;1.00;;;27.10;56.80;;;;;;4982110;28;20022;-83
2022/08/20 11:12:12;;;;;;;1.98;1.00;;;27.10;56.70;;;;;;5015918;28;20121;-81
2022/08/20 11:14:37;;;;;;;1.27;0.90;;;27.20;56.80;;;;;;4982465;28;20037;-81
2022/08/20 11:17:04;;;;;;;1.73;1.10;;;27.20;56.80;;;;;;4998517;28;20447;-80
2022/08/20 11:19:30;;;;;;;1.30;1.05;;;27.20;56.70;;;;;;4998464;28;20036;-82
2022/08/20 11:21:56;;;;;;;2.15;1.10;;;27.20;56.70;;;;;;4982927;28;20393;-82
2022/08/20 11:24:22;;;;;;;2.80;1.02;;;27.30;56.80;;;;;;5015473;28;20022;-82
2022/08/20 11:26:49;;;;;;;1.60;1.10;;;27.30;56.80;;;;;;5015255;28;20117;-80
2022/08/20 11:29:16;;;;;;;2.67;1.20;;;27.30;56.90;;;;;;4997732;28;20054;-85
2022/08/20 11:31:42;;;;;;;1.92;1.00;;;27.40;57.00;;;;;;4997976;28;20034;-81
2022/08/20 11:34:08;;;;;;;2.33;1.20;;;27.40;57.10;;;;;;5015065;28;20025;-82
2022/08/20 11:36:35;;;;;;;2.50;1.10;;;27.40;57.10;;;;;;4965255;28;20033;-81
2022/08/20 11:39:01;;;;;;;2.75;1.10;;;27.40;57.20;;;;;;5015548;28;20116;-80
2022/08/20 11:41:26;;;;;;;2.67;1.08;;;27.40;57.10;;;;;;4966236;28;20121;-82
2022/08/20 11:43:52;;;;;;;2.03;1.00;;;27.50;57.30;;;;;;4980346;28;20114;-80
2022/08/20 11:46:18;;;;;;;1.95;0.80;;;27.50;57.40;;;;;;4965274;28;20041;-83
2022/08/20 11:48:44;;;;;;;3.10;1.20;;;27.50;57.40;;;;;;4981489;28;20026;-80
2022/08/20 11:51:10;;;;;;;3.15;1.10;;;27.60;57.50;;;;;;4997558;28;20042;-81
2022/08/20 11:53:36;;;;;;;1.67;1.08;;;27.50;57.40;;;;;;4965952;28;20121;-84
2022/08/20 11:56:02;;;;;;;1.95;1.13;;;27.60;57.50;;;;;;4965168;28;20564;-83
2022/08/20 11:58:28;;;;;;;1.90;1.10;;;27.60;57.50;;;;;;4998251;28;20044;-83
2022/08/20 12:00:53;;;;;;;2.10;0.95;;;27.70;57.70;;;;;;4997268;28;20029;-81
2022/08/20 12:03:19;;;;;;;1.42;0.82;;;27.60;57.60;;;;;;4981317;28;20037;-84
2022/08/20 12:05:46;;;;;;;2.13;1.17;;;27.70;57.70;;;;;;4980986;28;20038;-83
2022/08/20 12:08:13;;;;;;;2.08;1.17;;;27.70;57.70;;;;;;4980974;28;20030;-81
2022/08/20 12:10:39;;;;;;;2.22;1.17;;;27.70;57.80;;;;;;4980955;28;20502;-84
2022/08/20 12:13:06;;;;;;;2.20;0.90;;;27.70;57.70;;;;;;4980911;28;20068;-82
2022/08/20 12:15:36;;;;;;;2.72;1.02;;;27.70;57.80;;;;;;4996699;28;20108;-82
2022/08/20 12:18:08;;;;;;;1.10;0.90;;;27.80;57.90;;;;;;4980901;28;20044;-82
2022/08/20 12:20:35;;;;;;;1.98;1.17;;;27.80;58.00;;;;;;4981503;28;20118;-82
2022/08/20 12:23:01;;;;;;;2.22;1.05;;;27.80;58.00;;;;;;5014581;28;20537;-81
2022/08/20 12:25:27;;;;;;;1.45;0.80;;;27.80;58.00;;;;;;4980589;28;20486;-85
2022/08/20 12:27:52;;;;;;;1.30;0.90;;;27.80;57.90;;;;;;4996796;28;20068;-84
2022/08/20 12:30:21;;;;;;;1.30;0.95;;;27.80;57.90;;;;;;4966143;28;20427;-81
2022/08/20 12:32:47;;;;;;;1.80;1.15;;;27.80;57.90;;;;;;4996721;28;20105;-83
2022/08/20 12:35:15;;;;;;;2.53;1.00;;;27.80;57.80;;;;;;4980606;28;20602;-82
2022/08/20 12:37:41;;;;;;;2.33;1.13;;;27.80;56.70;;;;;;4997523;28;20113;-83
2022/08/20 12:40:12;;;;;;;4.72;1.50;;;27.80;55.30;;;;;;5014343;28;20054;-86
2022/08/20 12:42:38;;;;;;;2.08;1.05;;;27.80;53.80;;;;;;4996745;28;20033;-84
2022/08/20 12:45:05;;;;;;;3.20;1.35;;;27.80;52.60;;;;;;4996479;28;20030;-83
2022/08/20 12:47:39;;;;;;;4.65;1.20;;;27.70;51.80;;;;;;4964710;28;20482;-88
2022/08/20 12:50:15;;;;;;;3.33;1.30;;;27.70;51.30;;;;;;4997622;28;20066;-84
2022/08/20 12:52:42;;;;;;;3.38;1.10;;;27.70;51.60;;;;;;5015258;28;20048;-85
2022/08/20 12:55:10;;;;;;;2.95;1.20;;;27.70;50.60;;;;;;4980661;28;20042;-85
2022/08/20 12:57:43;;;;;;;2.60;1.40;;;27.70;50.20;;;;;;4996719;28;20484;-86